createdAt,value
2018-09-10T00:01:42.146Z,19.61
2018-09-10T00:04:11.119Z,19.59
2018-09-10T00:06:40.106Z,19.48
2018-09-10T00:09:09.539Z,19.39
2018-09-10T00:11:39.191Z,19.43
2018-09-10T00:14:08.186Z,19.45
2018-09-10T00:16:37.215Z,19.34
2018-09-10T00:19:06.236Z,19.42
2018-09-10T00:21:35.263Z,19.28
2018-09-10T00:24:04.263Z,19.27
2018-09-10T00:26:33.497Z,19.39
2018-09-10T00:29:02.505Z,19.52
2018-09-10T00:31:31.500Z,19.17
2018-09-10T00:34:00.509Z,19.12
2018-09-10T00:36:29.498Z,19.25
2018-09-10T00:38:58.509Z,19.07
2018-09-10T00:41:27.882Z,19.06
2018-09-10T00:43:56.899Z,19.03
2018-09-10T00:46:25.890Z,19.16
2018-09-10T00:48:54.882Z,19.12
2018-09-10T00:51:24.202Z,19.13
2018-09-10T00:53:53.306Z,18.86
2018-09-10T00:56:22.662Z,18.80
2018-09-10T00:58:51.908Z,18.95
2018-09-10T01:01:21.554Z,18.76
2018-09-10T01:03:50.937Z,19.01
2018-09-10T01:06:19.953Z,19.11
2018-09-10T01:08:48.958Z,19.19
2018-09-10T01:11:17.963Z,19.22
2018-09-10T01:13:46.962Z,18.91
2018-09-10T01:16:15.999Z,18.90
2018-09-10T01:18:44.999Z,18.79
2018-09-10T01:21:14.030Z,18.84
2018-09-10T01:23:43.160Z,18.87
2018-09-10T01:26:12.182Z,18.80
2018-09-10T01:28:41.176Z,18.95
2018-09-10T01:31:10.389Z,18.92
2018-09-10T01:33:44.762Z,19.09
2018-09-10T01:36:14.077Z,18.86
2018-09-10T01:38:43.114Z,18.86
2018-09-10T01:41:19.013Z,18.79
2018-09-10T01:43:48.172Z,18.67
2018-09-10T01:46:17.245Z,18.94
2018-09-10T01:48:46.283Z,18.95
2018-09-10T01:51:15.340Z,18.77
2018-09-10T01:53:44.415Z,18.67
2018-09-10T01:56:13.718Z,18.71
2018-09-10T01:58:42.976Z,18.96
2018-09-10T02:01:12.215Z,18.91
2018-09-10T02:03:41.254Z,18.99
2018-09-10T02:06:10.433Z,18.79
2018-09-10T02:08:39.601Z,19.01
2018-09-10T02:11:08.679Z,19.00
2018-09-10T02:13:37.975Z,19.02
2018-09-10T02:16:11.091Z,19.13
2018-09-10T02:18:40.325Z,19.12
2018-09-10T02:21:09.345Z,19.10
2018-09-10T02:23:38.428Z,19.18
2018-09-10T02:26:07.644Z,19.12
2018-09-10T02:28:36.921Z,19.14
2018-09-10T02:31:06.377Z,19.14
2018-09-10T02:33:35.396Z,19.17
2018-09-10T02:36:04.878Z,19.12
2018-09-10T02:38:33.952Z,19.14
2018-09-10T02:41:02.928Z,18.84
2018-09-10T02:43:31.966Z,19.01
2018-09-10T02:46:01.203Z,19.28
2018-09-10T02:48:30.262Z,19.21
2018-09-10T02:50:59.265Z,19.14
2018-09-10T02:53:28.264Z,19.07
2018-09-10T02:55:57.300Z,19.18
2018-09-10T02:58:26.316Z,19.08
2018-09-10T03:00:55.357Z,19.08
2018-09-10T03:03:24.389Z,19.09
2018-09-10T03:05:53.422Z,18.93
2018-09-10T03:08:22.442Z,18.98
2018-09-10T03:10:51.496Z,18.83
2018-09-10T03:13:20.532Z,18.82
2018-09-10T03:15:49.609Z,18.75
2018-09-10T03:18:18.828Z,18.80
2018-09-10T03:20:48.217Z,18.80
2018-09-10T03:23:17.226Z,18.76
2018-09-10T03:25:46.580Z,18.59
2018-09-10T03:28:15.675Z,18.72
2018-09-10T03:30:44.978Z,18.72
2018-09-10T03:33:14.159Z,18.68
2018-09-10T03:35:43.170Z,18.50
2018-09-10T03:38:12.451Z,18.47
2018-09-10T03:40:41.468Z,18.64
2018-09-10T03:43:10.480Z,18.35
2018-09-10T03:45:39.479Z,18.56
2018-09-10T03:48:08.892Z,18.57
2018-09-10T03:50:37.889Z,18.42
2018-09-10T03:53:07.095Z,18.52
2018-09-10T03:55:36.324Z,18.23
2018-09-10T03:58:05.435Z,18.14
2018-09-10T04:00:34.590Z,18.39
2018-09-10T04:03:03.672Z,18.38
2018-09-10T04:05:32.912Z,18.30
2018-09-10T04:08:02.056Z,18.40
2018-09-10T04:10:31.048Z,18.32
2018-09-10T04:13:00.061Z,18.16
2018-09-10T04:15:29.491Z,18.23
2018-09-10T04:17:58.769Z,18.25
2018-09-10T04:20:28.005Z,18.20
2018-09-10T04:22:57.316Z,18.27
2018-09-10T04:25:26.314Z,18.16
2018-09-10T04:27:55.309Z,18.17
2018-09-10T04:30:25.073Z,18.24
2018-09-10T04:32:54.356Z,18.13
2018-09-10T04:35:23.644Z,18.15
2018-09-10T04:37:52.665Z,18.11
2018-09-10T04:40:22.024Z,18.22
2018-09-10T04:42:51.229Z,18.11
2018-09-10T04:45:20.232Z,18.16
2018-09-10T04:47:49.312Z,18.14
2018-09-10T04:50:18.389Z,17.96
2018-09-10T04:52:47.457Z,18.29
2018-09-10T04:55:16.752Z,18.44
2018-09-10T04:57:45.876Z,18.16
2018-09-10T05:00:14.888Z,18.43
2018-09-10T05:02:44.111Z,18.40
2018-09-10T05:05:13.106Z,18.71
2018-09-10T05:07:42.155Z,18.61
2018-09-10T05:10:11.147Z,18.63
2018-09-10T05:12:40.351Z,18.78
2018-09-10T05:15:09.421Z,18.56
2018-09-10T05:17:38.446Z,18.60
2018-09-10T05:20:07.743Z,18.56
2018-09-10T05:22:43.134Z,18.50
2018-09-10T05:25:12.176Z,18.38
2018-09-10T05:27:41.198Z,18.43
2018-09-10T05:30:11.471Z,18.72
2018-09-10T05:32:40.809Z,18.76
2018-09-10T05:35:09.811Z,18.86
2018-09-10T05:37:38.851Z,18.83
2018-09-10T05:40:09.308Z,18.75
2018-09-10T05:42:38.497Z,18.79
2018-09-10T05:45:09.814Z,18.96
2018-09-10T05:47:39.169Z,19.15
2018-09-10T05:50:09.157Z,18.95
2018-09-10T05:52:38.533Z,18.99
2018-09-10T05:55:07.859Z,18.88
2018-09-10T05:57:37.158Z,18.92
2018-09-10T06:00:08.484Z,18.82
2018-09-10T06:02:37.500Z,19.00
2018-09-10T06:05:06.586Z,18.93
2018-09-10T06:07:35.675Z,19.01
2018-09-10T06:10:04.825Z,19.20
2018-09-10T06:12:33.844Z,19.48
2018-09-10T06:15:02.899Z,19.61
2018-09-10T06:17:31.913Z,19.61
2018-09-10T06:20:01.209Z,19.57
2018-09-10T06:22:30.218Z,20.25
2018-09-10T06:24:59.550Z,20.30
2018-09-10T06:27:28.851Z,20.87
2018-09-10T06:29:57.871Z,20.77
2018-09-10T06:32:26.979Z,20.81
2018-09-10T06:34:56.366Z,20.90
2018-09-10T06:37:25.388Z,20.93
2018-09-10T06:39:54.444Z,20.99
2018-09-10T06:42:23.561Z,20.99
2018-09-10T06:44:52.569Z,20.87
2018-09-10T06:47:21.878Z,20.71
2018-09-10T06:49:50.922Z,21.07
2018-09-10T06:52:20.226Z,21.13
2018-09-10T06:54:49.354Z,21.28
2018-09-10T06:57:18.615Z,21.39
2018-09-10T06:59:47.700Z,21.38
2018-09-10T07:02:16.719Z,21.38
2018-09-10T07:04:46.052Z,21.71
2018-09-10T07:07:15.066Z,21.87
2018-09-10T07:09:44.384Z,21.99
2018-09-10T07:12:13.594Z,22.00
2018-09-10T07:14:42.807Z,22.22
2018-09-10T07:17:11.871Z,22.45
2018-09-10T07:19:41.329Z,22.58
2018-09-10T07:22:10.344Z,22.55
2018-09-10T07:24:39.484Z,22.74
2018-09-10T07:27:08.541Z,22.74
2018-09-10T07:29:37.659Z,22.74
2018-09-10T07:32:06.727Z,22.76
2018-09-10T07:34:35.824Z,22.80
2018-09-10T07:37:04.768Z,22.76
2018-09-10T07:39:33.827Z,22.98
2018-09-10T07:42:02.928Z,22.97
2018-09-10T07:44:31.936Z,23.04
2018-09-10T07:47:00.970Z,22.95
2018-09-10T07:49:30.024Z,23.07
2018-09-10T07:51:59.048Z,23.34
2018-09-10T07:54:28.120Z,23.42
2018-09-10T07:56:57.123Z,23.60
2018-09-10T07:59:26.372Z,23.86
2018-09-10T08:01:55.372Z,23.80
2018-09-10T08:04:24.492Z,23.85
2018-09-10T08:06:53.783Z,23.95
2018-09-10T08:09:22.930Z,24.05
2018-09-10T08:11:51.906Z,24.17
2018-09-10T08:14:20.901Z,24.29
2018-09-10T08:16:49.916Z,24.37
2018-09-10T08:19:18.980Z,23.90
2018-09-10T08:21:48.275Z,24.05
2018-09-10T08:24:17.369Z,24.04
2018-09-10T08:26:46.642Z,24.30
2018-09-10T08:29:15.857Z,24.42
2018-09-10T08:31:45.189Z,24.21
2018-09-10T08:34:14.207Z,24.24
2018-09-10T08:36:43.786Z,24.51
2018-09-10T08:39:13.175Z,24.61
2018-09-10T08:41:42.359Z,24.84
2018-09-10T08:44:11.474Z,24.78
2018-09-10T08:46:40.594Z,25.06
2018-09-10T08:49:09.622Z,24.89
2018-09-10T08:51:38.942Z,25.10
2018-09-10T08:54:08.170Z,25.24
2018-09-10T08:56:37.229Z,25.36
2018-09-10T08:59:06.417Z,25.62
2018-09-10T09:01:35.615Z,25.45
2018-09-10T09:04:05.040Z,25.60
2018-09-10T09:06:34.069Z,25.36
2018-09-10T09:09:03.416Z,25.50
2018-09-10T09:11:32.480Z,25.58
2018-09-10T09:14:01.482Z,25.66
2018-09-10T09:16:30.531Z,25.33
2018-09-10T09:19:01.724Z,25.49
2018-09-10T09:21:30.766Z,25.32
2018-09-10T09:23:59.851Z,25.39
2018-09-10T09:26:28.924Z,25.46
2018-09-10T09:28:57.913Z,25.45
2018-09-10T09:31:27.312Z,25.55
2018-09-10T09:33:56.646Z,25.35
2018-09-10T09:36:31.098Z,25.59
2018-09-10T09:39:05.320Z,25.81
2018-09-10T09:41:39.957Z,25.45
2018-09-10T09:44:14.208Z,25.68
2018-09-10T09:46:43.240Z,25.82
2018-09-10T09:49:12.282Z,25.81
2018-09-10T09:51:41.552Z,25.93
2018-09-10T09:54:10.780Z,25.69
2018-09-10T09:56:39.827Z,25.75
2018-09-10T09:59:09.111Z,25.68
2018-09-10T10:01:45.299Z,25.82
2018-09-10T10:04:15.014Z,25.89
2018-09-10T10:06:44.258Z,25.82
2018-09-10T10:09:13.269Z,25.70
2018-09-10T10:11:42.399Z,26.01
2018-09-10T10:14:11.822Z,25.99
2018-09-10T10:16:40.937Z,26.03
2018-09-10T10:19:09.949Z,26.39
2018-09-10T10:21:39.039Z,26.38
2018-09-10T10:24:08.085Z,26.39
2018-09-10T10:26:37.217Z,26.27
2018-09-10T10:29:06.598Z,26.32
2018-09-10T10:31:35.611Z,26.27
2018-09-10T10:34:04.851Z,26.46
2018-09-10T10:36:34.002Z,26.67
2018-09-10T10:39:04.185Z,26.65
2018-09-10T10:41:33.468Z,26.54
2018-09-10T10:44:02.508Z,26.36
2018-09-10T10:46:31.580Z,26.52
2018-09-10T10:49:00.625Z,26.63
2018-09-10T10:51:29.875Z,26.73
2018-09-10T10:53:58.974Z,26.77
2018-09-10T10:56:28.149Z,26.80
2018-09-10T10:58:57.208Z,26.80
2018-09-10T11:01:26.563Z,26.87
2018-09-10T11:03:55.620Z,26.79
2018-09-10T11:06:25.001Z,26.54
2018-09-10T11:08:54.174Z,26.92
2018-09-10T11:11:23.481Z,26.95
2018-09-10T11:13:52.495Z,27.08
2018-09-10T11:16:21.577Z,27.05
2018-09-10T11:18:50.597Z,26.96
2018-09-10T11:21:19.873Z,26.93
2018-09-10T11:23:49.337Z,26.95
2018-09-10T11:26:18.615Z,26.91
2018-09-10T11:28:47.757Z,26.86
2018-09-10T11:31:16.787Z,27.17
2018-09-10T11:33:45.837Z,27.53
2018-09-10T11:36:14.912Z,27.11
2018-09-10T11:38:43.996Z,27.39
2018-09-10T11:41:13.048Z,27.44
2018-09-10T11:43:42.430Z,27.40
2018-09-10T11:46:11.486Z,27.35
2018-09-10T11:48:40.809Z,27.34
2018-09-10T11:51:09.949Z,27.56
2018-09-10T11:53:39.249Z,27.32
2018-09-10T11:56:08.288Z,27.46
2018-09-10T11:58:38.288Z,27.19
2018-09-10T12:01:07.807Z,27.19
2018-09-10T12:03:36.973Z,27.39
2018-09-10T12:06:06.195Z,27.56
2018-09-10T12:08:35.215Z,27.43
2018-09-10T12:11:04.295Z,27.51
2018-09-10T12:13:33.431Z,27.18
2018-09-10T12:16:02.706Z,27.16
2018-09-10T12:18:31.711Z,27.28
2018-09-10T12:21:00.762Z,27.38
2018-09-10T12:23:29.765Z,27.28
2018-09-10T12:25:59.016Z,27.22
2018-09-10T12:28:28.033Z,27.14
2018-09-10T12:30:57.048Z,27.00
2018-09-10T12:33:27.033Z,27.42
2018-09-10T12:35:56.065Z,27.10
2018-09-10T12:38:25.096Z,26.88
2018-09-10T12:40:54.179Z,26.87
2018-09-10T12:43:23.182Z,26.78
2018-09-10T12:45:52.353Z,26.81
2018-09-10T12:48:21.412Z,26.99
2018-09-10T12:50:50.510Z,26.85
2018-09-10T12:53:19.495Z,27.04
2018-09-10T12:55:48.532Z,26.98
2018-09-10T12:58:17.552Z,26.69
2018-09-10T13:00:46.565Z,26.55
2018-09-10T13:03:15.575Z,26.95
2018-09-10T13:05:44.594Z,26.76
2018-09-10T13:08:13.680Z,26.94
2018-09-10T13:10:42.747Z,26.90
2018-09-10T13:13:11.731Z,26.96
2018-09-10T13:15:41.054Z,26.92
2018-09-10T13:18:10.174Z,27.06
2018-09-10T13:20:39.193Z,27.02
2018-09-10T13:23:08.907Z,26.70
2018-09-10T13:25:38.432Z,27.08
2018-09-10T13:28:07.542Z,26.92
2018-09-10T13:30:36.784Z,27.05
2018-09-10T13:33:06.209Z,27.02
2018-09-10T13:35:35.231Z,26.63
2018-09-10T13:38:04.240Z,26.71
2018-09-10T13:40:33.268Z,26.93
2018-09-10T13:43:02.538Z,27.15
2018-09-10T13:45:31.593Z,26.95
2018-09-10T13:48:00.618Z,26.94
2018-09-10T13:50:29.644Z,27.02
2018-09-10T13:52:58.912Z,26.82
2018-09-10T13:55:28.100Z,27.03
2018-09-10T13:57:57.413Z,26.79
2018-09-10T14:00:26.619Z,26.93
2018-09-10T14:02:55.851Z,26.86
2018-09-10T14:05:24.899Z,27.01
2018-09-10T14:07:54.322Z,27.24
2018-09-10T14:10:23.375Z,27.10
2018-09-10T14:12:52.806Z,27.16
2018-09-10T14:15:21.960Z,27.19
2018-09-10T14:17:50.995Z,27.45
2018-09-10T14:20:20.054Z,27.30
2018-09-10T14:22:49.103Z,27.26
2018-09-10T14:25:18.120Z,27.09
2018-09-10T14:27:47.255Z,27.18
2018-09-10T14:30:16.603Z,27.12
2018-09-10T14:32:45.615Z,26.99
2018-09-10T14:35:14.660Z,27.05
2018-09-10T14:37:43.973Z,26.84
2018-09-10T14:40:13.049Z,26.70
2018-09-10T14:42:42.849Z,26.68
2018-09-10T14:45:11.982Z,26.63
2018-09-10T14:47:41.002Z,26.83
2018-09-10T14:50:10.301Z,26.85
2018-09-10T14:52:39.706Z,26.85
2018-09-10T14:55:08.772Z,26.93
2018-09-10T14:57:38.020Z,26.86
2018-09-10T15:00:07.296Z,26.72
2018-09-10T15:02:36.575Z,26.97
2018-09-10T15:05:05.784Z,26.87
2018-09-10T15:07:35.136Z,26.69
2018-09-10T15:10:04.436Z,26.89
2018-09-10T15:12:33.524Z,26.74
2018-09-10T15:15:02.766Z,26.68
2018-09-10T15:17:31.827Z,26.71
2018-09-10T15:20:01.152Z,26.68
2018-09-10T15:22:30.602Z,26.57
2018-09-10T15:24:59.987Z,26.52
2018-09-10T15:27:29.005Z,26.61
2018-09-10T15:29:58.062Z,26.53
2018-09-10T15:32:27.115Z,26.42
2018-09-10T15:34:56.232Z,26.60
2018-09-10T15:37:25.272Z,26.56
2018-09-10T15:39:54.308Z,26.38
2018-09-10T15:42:23.337Z,26.43
2018-09-10T15:44:52.592Z,26.52
2018-09-10T15:47:21.997Z,26.51
2018-09-10T15:49:51.723Z,26.23
2018-09-10T15:52:20.764Z,25.87
2018-09-10T15:54:49.848Z,25.93
2018-09-10T15:57:18.956Z,25.93
2018-09-10T15:59:48.027Z,26.36
2018-09-10T16:02:17.268Z,26.32
2018-09-10T16:04:46.492Z,26.29
2018-09-10T16:07:15.795Z,26.15
2018-09-10T16:09:45.400Z,25.21
2018-09-10T16:12:14.407Z,25.05
2018-09-10T16:14:43.746Z,24.78
2018-09-10T16:17:13.144Z,24.83
2018-09-10T16:19:42.536Z,25.25
2018-09-10T16:22:11.802Z,25.46
2018-09-10T16:24:40.855Z,25.48
2018-09-10T16:27:09.895Z,25.24
2018-09-10T16:29:39.096Z,25.26
2018-09-10T16:32:09.260Z,25.36
2018-09-10T16:34:39.528Z,25.13
2018-09-10T16:37:08.607Z,25.07
2018-09-10T16:39:37.683Z,25.01
2018-09-10T16:42:06.817Z,24.83
2018-09-10T16:44:36.093Z,24.80
2018-09-10T16:47:05.126Z,24.95
2018-09-10T16:49:34.703Z,25.19
2018-09-10T16:52:04.056Z,25.07
2018-09-10T16:54:33.365Z,24.54
2018-09-10T16:57:02.468Z,24.50
2018-09-10T16:59:31.471Z,24.35
2018-09-10T17:02:00.556Z,24.45
2018-09-10T17:04:29.839Z,24.23
2018-09-10T17:06:58.926Z,24.52
2018-09-10T17:09:28.081Z,24.66
2018-09-10T17:11:57.119Z,24.08
2018-09-10T17:14:29.557Z,24.51
2018-09-10T17:16:58.737Z,24.04
2018-09-10T17:19:27.779Z,24.26
2018-09-10T17:21:56.924Z,24.08
2018-09-10T17:24:26.187Z,24.07
2018-09-10T17:26:55.370Z,24.01
2018-09-10T17:29:24.678Z,24.04
2018-09-10T17:31:54.837Z,23.80
2018-09-10T17:34:24.192Z,23.94
2018-09-10T17:36:53.475Z,24.10
2018-09-10T17:39:22.638Z,24.11
2018-09-10T17:41:52.262Z,24.14
2018-09-10T17:44:21.376Z,24.05
2018-09-10T17:46:50.630Z,24.09
2018-09-10T17:49:20.545Z,23.94
2018-09-10T17:51:49.612Z,23.83
2018-09-10T17:54:19.087Z,23.84
2018-09-10T17:56:48.139Z,23.96
2018-09-10T17:59:17.365Z,23.63
2018-09-10T18:01:50.206Z,24.01
2018-09-10T18:04:19.447Z,23.49
2018-09-10T18:06:48.499Z,24.10
2018-09-10T18:09:17.954Z,24.16
2018-09-10T18:11:50.692Z,24.01
2018-09-10T18:14:19.894Z,24.10
2018-09-10T18:16:49.183Z,23.89
2018-09-10T18:19:19.266Z,23.81
2018-09-10T18:21:48.931Z,23.76
2018-09-10T18:24:18.409Z,23.79
2018-09-10T18:26:48.949Z,23.57
2018-09-10T18:29:18.886Z,23.81
2018-09-10T18:31:47.921Z,23.85
2018-09-10T18:34:17.996Z,23.81
2018-09-10T18:36:47.583Z,23.77
2018-09-10T18:39:17.463Z,23.65
2018-09-10T18:41:47.783Z,23.58
2018-09-10T18:44:16.902Z,23.29
2018-09-10T18:46:46.421Z,23.32
2018-09-10T18:49:15.517Z,23.52
2018-09-10T18:51:44.875Z,23.28
2018-09-10T18:54:16.091Z,23.58
2018-09-10T18:56:45.146Z,23.43
2018-09-10T18:59:14.239Z,23.53
2018-09-10T19:01:43.466Z,23.66
2018-09-10T19:04:12.695Z,23.41
2018-09-10T19:06:41.878Z,23.55
2018-09-10T19:09:11.966Z,23.54
2018-09-10T19:11:41.400Z,23.73
2018-09-10T19:14:10.472Z,23.62
2018-09-10T19:16:40.178Z,23.74
2018-09-10T19:19:09.582Z,23.67
2018-09-10T19:21:38.786Z,23.78
2018-09-10T19:24:08.019Z,23.62
2018-09-10T19:26:37.162Z,23.79
2018-09-10T19:29:06.327Z,23.61
2018-09-10T19:31:35.783Z,23.65
2018-09-10T19:34:04.970Z,23.59
2018-09-10T19:36:34.335Z,23.63
2018-09-10T19:39:04.510Z,23.63
2018-09-10T19:41:33.999Z,23.70
2018-09-10T19:44:03.453Z,23.66
2018-09-10T19:46:32.726Z,23.64
2018-09-10T19:49:02.064Z,23.46
2018-09-10T19:51:32.537Z,23.49
2018-09-10T19:54:02.137Z,23.58
2018-09-10T19:56:32.015Z,23.55
2018-09-10T19:59:01.142Z,23.47
2018-09-10T20:01:30.197Z,23.53
2018-09-10T20:03:59.494Z,23.43
2018-09-10T20:06:28.630Z,23.48
2018-09-10T20:08:57.636Z,23.42
2018-09-10T20:11:26.709Z,23.23
2018-09-10T20:13:55.906Z,23.36
2018-09-10T20:16:25.007Z,23.44
2018-09-10T20:18:54.180Z,23.30
2018-09-10T20:21:23.485Z,23.34
2018-09-10T20:23:52.881Z,23.25
2018-09-10T20:26:21.930Z,23.25
2018-09-10T20:28:51.881Z,23.21
2018-09-10T20:31:20.991Z,23.16
2018-09-10T20:33:55.420Z,23.23
2018-09-10T20:36:24.560Z,23.24
2018-09-10T20:38:54.345Z,23.08
2018-09-10T20:41:23.739Z,23.01
2018-09-10T20:43:53.033Z,22.97
2018-09-10T20:46:22.097Z,22.77
2018-09-10T20:48:51.573Z,23.03
2018-09-10T20:51:21.022Z,22.96
2018-09-10T20:53:50.445Z,22.96
2018-09-10T20:56:19.547Z,22.90
2018-09-10T20:58:48.710Z,22.72
2018-09-10T21:01:18.112Z,23.04
2018-09-10T21:03:47.374Z,22.99
2018-09-10T21:06:16.809Z,23.03
2018-09-10T21:08:46.472Z,22.92
2018-09-10T21:11:15.684Z,22.94
2018-09-10T21:13:45.040Z,22.94
2018-09-10T21:16:14.108Z,23.02
2018-09-10T21:18:43.150Z,22.90
2018-09-10T21:21:12.712Z,22.85
2018-09-10T21:23:41.957Z,22.80
2018-09-10T21:26:11.276Z,22.86
2018-09-10T21:28:40.300Z,22.89
2018-09-10T21:31:09.566Z,23.01
2018-09-10T21:33:38.822Z,23.08
2018-09-10T21:36:07.929Z,22.94
2018-09-10T21:38:37.025Z,23.12
2018-09-10T21:41:06.091Z,23.10
2018-09-10T21:43:35.158Z,23.14
2018-09-10T21:46:04.273Z,23.07
2018-09-10T21:48:33.596Z,23.01
2018-09-10T21:51:02.765Z,23.06
2018-09-10T21:53:32.241Z,23.11
2018-09-10T21:56:01.301Z,23.01
2018-09-10T21:58:31.039Z,22.97
2018-09-10T22:01:00.289Z,23.00
2018-09-10T22:03:29.961Z,22.91
2018-09-10T22:05:58.989Z,22.96
2018-09-10T22:08:28.007Z,22.81
2018-09-10T22:10:57.082Z,22.82
2018-09-10T22:13:26.163Z,22.83
2018-09-10T22:15:55.203Z,22.79
2018-09-10T22:18:24.214Z,22.72
2018-09-10T22:20:53.518Z,22.65
2018-09-10T22:23:22.748Z,22.65
2018-09-10T22:25:51.991Z,22.63
2018-09-10T22:28:20.990Z,22.67
2018-09-10T22:30:50.419Z,22.69
2018-09-10T22:33:19.463Z,22.74
2018-09-10T22:35:48.510Z,22.69
2018-09-10T22:38:17.519Z,22.66
2018-09-10T22:40:46.564Z,22.67
2018-09-10T22:43:15.759Z,22.65
2018-09-10T22:45:45.012Z,22.62
2018-09-10T22:48:14.249Z,22.62
2018-09-10T22:50:43.706Z,22.56
2018-09-10T22:53:12.947Z,22.57
2018-09-10T22:55:42.247Z,22.56
2018-09-10T22:58:11.599Z,22.58
2018-09-10T23:00:41.140Z,22.55
2018-09-10T23:03:10.164Z,22.50
2018-09-10T23:05:39.169Z,22.51
2018-09-10T23:08:08.174Z,22.20
2018-09-10T23:10:37.200Z,21.88
2018-09-10T23:13:06.697Z,22.21
2018-09-10T23:15:35.723Z,22.24
2018-09-10T23:18:04.992Z,22.16
2018-09-10T23:20:34.063Z,22.29
2018-09-10T23:23:03.220Z,22.11
2018-09-10T23:25:32.222Z,21.98
2018-09-10T23:28:01.439Z,22.10
2018-09-10T23:30:30.464Z,22.22
2018-09-10T23:33:00.375Z,22.31
2018-09-10T23:35:29.956Z,22.33
2018-09-10T23:37:59.144Z,22.15
2018-09-10T23:40:28.438Z,22.07
2018-09-10T23:42:57.462Z,22.14
2018-09-10T23:45:26.758Z,22.12
2018-09-10T23:47:55.814Z,22.15
2018-09-10T23:50:25.468Z,21.90
2018-09-10T23:52:54.757Z,22.02
2018-09-10T23:55:23.955Z,21.86
2018-09-10T23:57:52.973Z,21.54
